sensor_id;sensor_type;location;lat;lon;timestamp;P1;durP1;ratioP1;P2;durP2;ratioP2
9304;SDS011;4690;52.422;13.486;2023-07-30T00:05:05;6.85;;;6.18;;
9304;SDS011;4690;52.422;13.486;2023-07-30T00:07:31;6.15;;;5.53;;
9304;SDS011;4690;52.422;13.486;2023-07-30T00:09:56;6.32;;;5.82;;
9304;SDS011;4690;52.422;13.486;2023-07-30T00:12:22;6.38;;;5.88;;
9304;SDS011;4690;52.422;13.486;2023-07-30T00:14:48;6.40;;;5.63;;
9304;SDS011;4690;52.422;13.486;2023-07-30T00:17:14;5.93;;;5.43;;
9304;SDS011;4690;52.422;13.486;2023-07-30T00:19:39;6.80;;;6.20;;
9304;SDS011;4690;52.422;13.486;2023-07-30T00:22:05;6.57;;;6.07;;
9304;SDS011;4690;52.422;13.486;2023-07-30T00:24:31;6.38;;;5.88;;
9304;SDS011;4690;52.422;13.486;2023-07-30T00:26:57;6.35;;;5.75;;
9304;SDS011;4690;52.422;13.486;2023-07-30T00:29:22;6.95;;;6.25;;
9304;SDS011;4690;52.422;13.486;2023-07-30T00:31:48;5.70;;;5.28;;
9304;SDS011;4690;52.422;13.486;2023-07-30T00:34:14;6.78;;;5.75;;
9304;SDS011;4690;52.422;13.486;2023-07-30T00:36:40;6.90;;;6.30;;
9304;SDS011;4690;52.422;13.486;2023-07-30T00:39:06;8.82;;;6.07;;
9304;SDS011;4690;52.422;13.486;2023-07-30T00:41:36;7.97;;;6.85;;
9304;SDS011;4690;52.422;13.486;2023-07-30T00:44:01;6.30;;;5.80;;
9304;SDS011;4690;52.422;13.486;2023-07-30T00:46:28;6.85;;;5.60;;
9304;SDS011;4690;52.422;13.486;2023-07-30T00:48:54;8.00;;;6.88;;
9304;SDS011;4690;52.422;13.486;2023-07-30T00:51:20;7.85;;;7.05;;
9304;SDS011;4690;52.422;13.486;2023-07-30T00:53:46;6.82;;;6.22;;
9304;SDS011;4690;52.422;13.486;2023-07-30T00:56:12;5.95;;;5.45;;
9304;SDS011;4690;52.422;13.486;2023-07-30T00:58:39;5.95;;;5.35;;
9304;SDS011;4690;52.422;13.486;2023-07-30T01:01:06;6.63;;;6.03;;
9304;SDS011;4690;52.422;13.486;2023-07-30T01:03:32;6.78;;;6.15;;
9304;SDS011;4690;52.422;13.486;2023-07-30T01:05:58;7.20;;;6.20;;
9304;SDS011;4690;52.422;13.486;2023-07-30T01:08:24;6.45;;;5.80;;
9304;SDS011;4690;52.422;13.486;2023-07-30T01:10:50;6.60;;;6.00;;
9304;SDS011;4690;52.422;13.486;2023-07-30T01:13:17;6.53;;;5.82;;
9304;SDS011;4690;52.422;13.486;2023-07-30T01:15:43;6.63;;;6.13;;
9304;SDS011;4690;52.422;13.486;2023-07-30T01:18:10;6.93;;;6.32;;
9304;SDS011;4690;52.422;13.486;2023-07-30T01:20:36;8.18;;;6.55;;
9304;SDS011;4690;52.422;13.486;2023-07-30T01:23:02;6.70;;;6.10;;
9304;SDS011;4690;52.422;13.486;2023-07-30T01:25:28;7.28;;;6.50;;
9304;SDS011;4690;52.422;13.486;2023-07-30T01:28:01;6.88;;;6.25;;
9304;SDS011;4690;52.422;13.486;2023-07-30T01:30:40;6.93;;;6.43;;
9304;SDS011;4690;52.422;13.486;2023-07-30T01:33:07;6.55;;;6.05;;
9304;SDS011;4690;52.422;13.486;2023-07-30T01:35:35;7.28;;;6.68;;
9304;SDS011;4690;52.422;13.486;2023-07-30T01:38:03;7.40;;;6.72;;
9304;SDS011;4690;52.422;13.486;2023-07-30T01:40:30;7.13;;;6.55;;
9304;SDS011;4690;52.422;13.486;2023-07-30T01:42:58;7.10;;;6.40;;
9304;SDS011;4690;52.422;13.486;2023-07-30T01:45:24;6.65;;;6.15;;
9304;SDS011;4690;52.422;13.486;2023-07-30T01:47:50;6.80;;;6.20;;
9304;SDS011;4690;52.422;13.486;2023-07-30T01:50:15;7.70;;;6.20;;
9304;SDS011;4690;52.422;13.486;2023-07-30T01:52:41;8.60;;;7.03;;
9304;SDS011;4690;52.422;13.486;2023-07-30T01:55:07;6.70;;;6.10;;
9304;SDS011;4690;52.422;13.486;2023-07-30T01:57:33;7.13;;;6.53;;
9304;SDS011;4690;52.422;13.486;2023-07-30T01:59:59;6.70;;;6.20;;
9304;SDS011;4690;52.422;13.486;2023-07-30T02:02:25;7.03;;;6.50;;
9304;SDS011;4690;52.422;13.486;2023-07-30T02:04:50;8.00;;;7.28;;
9304;SDS011;4690;52.422;13.486;2023-07-30T02:07:16;6.47;;;5.97;;
9304;SDS011;4690;52.422;13.486;2023-07-30T02:09:42;8.77;;;6.47;;
9304;SDS011;4690;52.422;13.486;2023-07-30T02:12:08;9.68;;;7.28;;
9304;SDS011;4690;52.422;13.486;2023-07-30T02:14:34;7.03;;;6.43;;
9304;SDS011;4690;52.422;13.486;2023-07-30T02:17:00;7.10;;;6.57;;
9304;SDS011;4690;52.422;13.486;2023-07-30T02:19:26;8.23;;;6.93;;
9304;SDS011;4690;52.422;13.486;2023-07-30T02:21:52;7.57;;;6.78;;
9304;SDS011;4690;52.422;13.486;2023-07-30T02:24:17;6.65;;;6.15;;
9304;SDS011;4690;52.422;13.486;2023-07-30T02:26:43;7.38;;;6.65;;
9304;SDS011;4690;52.422;13.486;2023-07-30T02:29:09;7.60;;;6.82;;
9304;SDS011;4690;52.422;13.486;2023-07-30T02:31:34;6.82;;;6.13;;
9304;SDS011;4690;52.422;13.486;2023-07-30T02:34:00;7.55;;;6.85;;
9304;SDS011;4690;52.422;13.486;2023-07-30T02:36:26;7.30;;;6.65;;
9304;SDS011;4690;52.422;13.486;2023-07-30T02:38:52;7.55;;;6.80;;
9304;SDS011;4690;52.422;13.486;2023-07-30T02:41:17;7.25;;;6.53;;
9304;SDS011;4690;52.422;13.486;2023-07-30T02:43:43;6.50;;;6.00;;
9304;SDS011;4690;52.422;13.486;2023-07-30T02:46:09;7.30;;;6.65;;
9304;SDS011;4690;52.422;13.486;2023-07-30T02:48:34;6.97;;;6.38;;
9304;SDS011;4690;52.422;13.486;2023-07-30T02:51:00;7.63;;;6.93;;
9304;SDS011;4690;52.422;13.486;2023-07-30T02:53:26;8.50;;;7.80;;
9304;SDS011;4690;52.422;13.486;2023-07-30T02:55:52;7.80;;;7.10;;
9304;SDS011;4690;52.422;13.486;2023-07-30T02:58:18;8.15;;;7.35;;
9304;SDS011;4690;52.422;13.486;2023-07-30T03:00:44;7.45;;;6.85;;
9304;SDS011;4690;52.422;13.486;2023-07-30T03:03:09;7.85;;;7.25;;
9304;SDS011;4690;52.422;13.486;2023-07-30T03:05:35;9.30;;;8.40;;
9304;SDS011;4690;52.422;13.486;2023-07-30T03:08:01;9.10;;;8.30;;
9304;SDS011;4690;52.422;13.486;2023-07-30T03:10:27;7.93;;;7.32;;
9304;SDS011;4690;52.422;13.486;2023-07-30T03:12:52;7.20;;;6.60;;
9304;SDS011;4690;52.422;13.486;2023-07-30T03:15:18;8.35;;;7.65;;
9304;SDS011;4690;52.422;13.486;2023-07-30T03:17:44;7.78;;;7.18;;
9304;SDS011;4690;52.422;13.486;2023-07-30T03:20:10;7.32;;;6.82;;
9304;SDS011;4690;52.422;13.486;2023-07-30T03:22:36;7.93;;;7.22;;
9304;SDS011;4690;52.422;13.486;2023-07-30T03:25:01;8.30;;;7.60;;
9304;SDS011;4690;52.422;13.486;2023-07-30T03:27:27;7.80;;;7.20;;
9304;SDS011;4690;52.422;13.486;2023-07-30T03:29:53;7.90;;;7.30;;
9304;SDS011;4690;52.422;13.486;2023-07-30T03:32:19;7.90;;;7.30;;
9304;SDS011;4690;52.422;13.486;2023-07-30T03:34:45;8.05;;;7.35;;
9304;SDS011;4690;52.422;13.486;2023-07-30T03:37:10;10.10;;;7.32;;
9304;SDS011;4690;52.422;13.486;2023-07-30T03:39:36;8.50;;;7.80;;
9304;SDS011;4690;52.422;13.486;2023-07-30T03:42:02;7.70;;;7.10;;
9304;SDS011;4690;52.422;13.486;2023-07-30T03:44:28;8.30;;;7.70;;
9304;SDS011;4690;52.422;13.486;2023-07-30T03:46:53;9.50;;;8.48;;
9304;SDS011;4690;52.422;13.486;2023-07-30T03:49:19;9.60;;;8.80;;
9304;SDS011;4690;52.422;13.486;2023-07-30T03:51:45;8.65;;;7.85;;
9304;SDS011;4690;52.422;13.486;2023-07-30T03:54:11;8.90;;;8.05;;
9304;SDS011;4690;52.422;13.486;2023-07-30T03:56:36;8.27;;;7.60;;
9304;SDS011;4690;52.422;13.486;2023-07-30T03:59:02;8.38;;;7.78;;
9304;SDS011;4690;52.422;13.486;2023-07-30T04:01:28;8.27;;;7.68;;
9304;SDS011;4690;52.422;13.486;2023-07-30T04:03:55;9.23;;;8.43;;
9304;SDS011;4690;52.422;13.486;2023-07-30T04:06:21;8.43;;;7.72;;
9304;SDS011;4690;52.422;13.486;2023-07-30T04:08:47;8.38;;;7.68;;
9304;SDS011;4690;52.422;13.486;2023-07-30T04:11:12;8.52;;;7.93;;
9304;SDS011;4690;52.422;13.486;2023-07-30T04:13:38;7.88;;;7.28;;
9304;SDS011;4690;52.422;13.486;2023-07-30T04:16:05;9.30;;;8.40;;
9304;SDS011;4690;52.422;13.486;2023-07-30T04:18:31;10.02;;;9.13;;
9304;SDS011;4690;52.422;13.486;2023-07-30T04:20:57;8.95;;;8.15;;
9304;SDS011;4690;52.422;13.486;2023-07-30T04:23:23;7.97;;;7.32;;
9304;SDS011;4690;52.422;13.486;2023-07-30T04:25:49;9.40;;;8.60;;
9304;SDS011;4690;52.422;13.486;2023-07-30T04:28:15;8.45;;;7.85;;
9304;SDS011;4690;52.422;13.486;2023-07-30T04:30:41;10.52;;;9.73;;
9304;SDS011;4690;52.422;13.486;2023-07-30T04:33:07;8.85;;;8.25;;
9304;SDS011;4690;52.422;13.486;2023-07-30T04:35:33;9.15;;;8.45;;
9304;SDS011;4690;52.422;13.486;2023-07-30T04:37:59;8.98;;;8.27;;
9304;SDS011;4690;52.422;13.486;2023-07-30T04:40:25;8.63;;;7.82;;
9304;SDS011;4690;52.422;13.486;2023-07-30T04:42:50;9.32;;;8.60;;
9304;SDS011;4690;52.422;13.486;2023-07-30T04:45:16;8.75;;;8.07;;
9304;SDS011;4690;52.422;13.486;2023-07-30T04:47:42;8.30;;;7.70;;
9304;SDS011;4690;52.422;13.486;2023-07-30T04:50:08;9.13;;;8.30;;
9304;SDS011;4690;52.422;13.486;2023-07-30T04:52:34;9.13;;;8.23;;
9304;SDS011;4690;52.422;13.486;2023-07-30T04:55:00;8.85;;;8.15;;
9304;SDS011;4690;52.422;13.486;2023-07-30T04:57:25;8.65;;;8.05;;
9304;SDS011;4690;52.422;13.486;2023-07-30T04:59:51;9.25;;;8.55;;
9304;SDS011;4690;52.422;13.486;2023-07-30T05:02:17;8.57;;;7.88;;
9304;SDS011;4690;52.422;13.486;2023-07-30T05:04:43;8.55;;;7.88;;
9304;SDS011;4690;52.422;13.486;2023-07-30T05:07:09;8.63;;;7.80;;
9304;SDS011;4690;52.422;13.486;2023-07-30T05:09:35;8.57;;;7.88;;
9304;SDS011;4690;52.422;13.486;2023-07-30T05:12:01;8.13;;;7.40;;
9304;SDS011;4690;52.422;13.486;2023-07-30T05:14:27;8.23;;;7.40;;
9304;SDS011;4690;52.422;13.486;2023-07-30T05:16:52;7.97;;;7.38;;
9304;SDS011;4690;52.422;13.486;2023-07-30T05:19:18;7.80;;;7.10;;
9304;SDS011;4690;52.422;13.486;2023-07-30T05:21:45;7.78;;;7.18;;
9304;SDS011;4690;52.422;13.486;2023-07-30T05:24:11;7.18;;;6.68;;
9304;SDS011;4690;52.422;13.486;2023-07-30T05:26:36;7.45;;;6.80;;
9304;SDS011;4690;52.422;13.486;2023-07-30T05:29:02;7.00;;;6.30;;
9304;SDS011;4690;52.422;13.486;2023-07-30T05:31:28;6.95;;;6.45;;
9304;SDS011;4690;52.422;13.486;2023-07-30T05:33:54;7.22;;;6.32;;
9304;SDS011;4690;52.422;13.486;2023-07-30T05:36:20;7.32;;;6.10;;
9304;SDS011;4690;52.422;13.486;2023-07-30T05:38:46;6.15;;;5.75;;
9304;SDS011;4690;52.422;13.486;2023-07-30T05:41:11;6.68;;;5.80;;
9304;SDS011;4690;52.422;13.486;2023-07-30T05:43:37;6.40;;;5.90;;
9304;SDS011;4690;52.422;13.486;2023-07-30T05:46:03;6.15;;;5.55;;
9304;SDS011;4690;52.422;13.486;2023-07-30T05:48:29;6.15;;;5.55;;
9304;SDS011;4690;52.422;13.486;2023-07-30T05:50:55;6.13;;;5.63;;
9304;SDS011;4690;52.422;13.486;2023-07-30T05:53:20;5.97;;;5.50;;
9304;SDS011;4690;52.422;13.486;2023-07-30T05:55:46;5.78;;;5.32;;
9304;SDS011;4690;52.422;13.486;2023-07-30T05:58:13;5.65;;;5.25;;
9304;SDS011;4690;52.422;13.486;2023-07-30T06:00:39;6.80;;;5.13;;
9304;SDS011;4690;52.422;13.486;2023-07-30T06:03:05;5.35;;;4.95;;
9304;SDS011;4690;52.422;13.486;2023-07-30T06:05:31;5.15;;;4.53;;
9304;SDS011;4690;52.422;13.486;2023-07-30T06:07:57;5.18;;;4.78;;
9304;SDS011;4690;52.422;13.486;2023-07-30T06:10:24;5.95;;;5.45;;
9304;SDS011;4690;52.422;13.486;2023-07-30T06:12:50;5.75;;;5.25;;
9304;SDS011;4690;52.422;13.486;2023-07-30T06:15:16;5.00;;;4.55;;
9304;SDS011;4690;52.422;13.486;2023-07-30T06:17:41;6.90;;;4.72;;
9304;SDS011;4690;52.422;13.486;2023-07-30T06:20:07;5.20;;;4.80;;
9304;SDS011;4690;52.422;13.486;2023-07-30T06:22:34;5.10;;;4.60;;
9304;SDS011;4690;52.422;13.486;2023-07-30T06:24:59;4.80;;;4.30;;
9304;SDS011;4690;52.422;13.486;2023-07-30T06:27:25;5.40;;;4.53;;
9304;SDS011;4690;52.422;13.486;2023-07-30T06:29:51;5.10;;;4.70;;
9304;SDS011;4690;52.422;13.486;2023-07-30T06:32:17;5.10;;;4.60;;
9304;SDS011;4690;52.422;13.486;2023-07-30T06:34:42;5.38;;;4.75;;
9304;SDS011;4690;52.422;13.486;2023-07-30T06:37:08;5.15;;;4.68;;
9304;SDS011;4690;52.422;13.486;2023-07-30T06:39:34;4.88;;;4.47;;
9304;SDS011;4690;52.422;13.486;2023-07-30T06:42:00;5.45;;;4.95;;
9304;SDS011;4690;52.422;13.486;2023-07-30T06:44:25;5.47;;;4.95;;
9304;SDS011;4690;52.422;13.486;2023-07-30T06:46:51;5.20;;;4.80;;
9304;SDS011;4690;52.422;13.486;2023-07-30T06:49:17;6.22;;;4.88;;
9304;SDS011;4690;52.422;13.486;2023-07-30T06:51:43;5.55;;;5.15;;
9304;SDS011;4690;52.422;13.486;2023-07-30T06:54:08;5.25;;;4.78;;
9304;SDS011;4690;52.422;13.486;2023-07-30T06:56:34;5.65;;;5.15;;
9304;SDS011;4690;52.422;13.486;2023-07-30T06:59:01;7.00;;;5.45;;
9304;SDS011;4690;52.422;13.486;2023-07-30T07:01:28;5.57;;;5.18;;
9304;SDS011;4690;52.422;13.486;2023-07-30T07:03:54;6.15;;;5.10;;
9304;SDS011;4690;52.422;13.486;2023-07-30T07:06:20;5.80;;;5.30;;
9304;SDS011;4690;52.422;13.486;2023-07-30T07:08:45;5.90;;;5.45;;
9304;SDS011;4690;52.422;13.486;2023-07-30T07:11:11;5.60;;;5.07;;
9304;SDS011;4690;52.422;13.486;2023-07-30T07:13:37;5.45;;;5.05;;
9304;SDS011;4690;52.422;13.486;2023-07-30T07:16:03;5.63;;;5.18;;
9304;SDS011;4690;52.422;13.486;2023-07-30T07:18:28;5.25;;;4.85;;
9304;SDS011;4690;52.422;13.486;2023-07-30T07:20:54;5.45;;;5.05;;
9304;SDS011;4690;52.422;13.486;2023-07-30T07:23:20;5.32;;;4.82;;
9304;SDS011;4690;52.422;13.486;2023-07-30T07:25:46;5.15;;;4.80;;
9304;SDS011;4690;52.422;13.486;2023-07-30T07:28:12;5.38;;;4.88;;
9304;SDS011;4690;52.422;13.486;2023-07-30T07:30:38;5.82;;;4.63;;
9304;SDS011;4690;52.422;13.486;2023-07-30T07:33:03;5.20;;;4.70;;
9304;SDS011;4690;52.422;13.486;2023-07-30T07:35:31;6.22;;;4.63;;
9304;SDS011;4690;52.422;13.486;2023-07-30T07:37:57;4.30;;;4.00;;
9304;SDS011;4690;52.422;13.486;2023-07-30T07:40:22;4.60;;;4.20;;
9304;SDS011;4690;52.422;13.486;2023-07-30T07:42:48;4.57;;;4.18;;
9304;SDS011;4690;52.422;13.486;2023-07-30T07:45:14;4.53;;;4.00;;
9304;SDS011;4690;52.422;13.486;2023-07-30T07:47:40;4.60;;;3.55;;
9304;SDS011;4690;52.422;13.486;2023-07-30T07:50:05;4.10;;;3.80;;
9304;SDS011;4690;52.422;13.486;2023-07-30T07:52:32;4.20;;;3.70;;
9304;SDS011;4690;52.422;13.486;2023-07-30T07:54:58;4.35;;;3.97;;
9304;SDS011;4690;52.422;13.486;2023-07-30T07:57:23;4.68;;;4.28;;
9304;SDS011;4690;52.422;13.486;2023-07-30T07:59:49;4.13;;;3.80;;
9304;SDS011;4690;52.422;13.486;2023-07-30T08:02:15;4.35;;;3.95;;
9304;SDS011;4690;52.422;13.486;2023-07-30T08:04:40;4.13;;;3.78;;
9304;SDS011;4690;52.422;13.486;2023-07-30T08:07:06;5.93;;;3.78;;
9304;SDS011;4690;52.422;13.486;2023-07-30T08:09:32;4.18;;;3.80;;
9304;SDS011;4690;52.422;13.486;2023-07-30T08:11:59;4.55;;;3.72;;
9304;SDS011;4690;52.422;13.486;2023-07-30T08:14:25;4.20;;;3.80;;
9304;SDS011;4690;52.422;13.486;2023-07-30T08:16:51;4.22;;;3.85;;
9304;SDS011;4690;52.422;13.486;2023-07-30T08:19:17;5.15;;;3.67;;
9304;SDS011;4690;52.422;13.486;2023-07-30T08:21:43;3.80;;;3.50;;
9304;SDS011;4690;52.422;13.486;2023-07-30T08:24:08;5.38;;;3.55;;
9304;SDS011;4690;52.422;13.486;2023-07-30T08:26:34;3.20;;;3.00;;
9304;SDS011;4690;52.422;13.486;2023-07-30T08:29:00;4.22;;;3.47;;
9304;SDS011;4690;52.422;13.486;2023-07-30T08:31:26;3.72;;;3.30;;
9304;SDS011;4690;52.422;13.486;2023-07-30T08:33:51;3.95;;;3.35;;
9304;SDS011;4690;52.422;13.486;2023-07-30T08:36:17;4.85;;;3.30;;
9304;SDS011;4690;52.422;13.486;2023-07-30T08:38:43;4.65;;;3.03;;
9304;SDS011;4690;52.422;13.486;2023-07-30T08:41:08;4.63;;;3.20;;
9304;SDS011;4690;52.422;13.486;2023-07-30T08:43:35;4.40;;;3.20;;
9304;SDS011;4690;52.422;13.486;2023-07-30T08:46:01;3.28;;;3.00;;
9304;SDS011;4690;52.422;13.486;2023-07-30T08:48:27;3.80;;;3.10;;
9304;SDS011;4690;52.422;13.486;2023-07-30T08:50:56;9.07;;;3.15;;
9304;SDS011;4690;52.422;13.486;2023-07-30T08:53:26;4.03;;;2.97;;
9304;SDS011;4690;52.422;13.486;2023-07-30T08:55:53;3.40;;;2.92;;
9304;SDS011;4690;52.422;13.486;2023-07-30T08:58:21;3.40;;;3.10;;
9304;SDS011;4690;52.422;13.486;2023-07-30T09:00:50;3.75;;;2.90;;
9304;SDS011;4690;52.422;13.486;2023-07-30T09:03:18;4.72;;;2.90;;
9304;SDS011;4690;52.422;13.486;2023-07-30T09:05:48;3.75;;;2.85;;
9304;SDS011;4690;52.422;13.486;2023-07-30T09:08:14;3.35;;;3.00;;
9304;SDS011;4690;52.422;13.486;2023-07-30T09:10:41;3.40;;;2.85;;
9304;SDS011;4690;52.422;13.486;2023-07-30T09:13:07;3.58;;;3.28;;
9304;SDS011;4690;52.422;13.486;2023-07-30T09:15:34;3.85;;;2.95;;
9304;SDS011;4690;52.422;13.486;2023-07-30T09:18:05;3.25;;;2.95;;
9304;SDS011;4690;52.422;13.486;2023-07-30T09:20:40;3.00;;;2.70;;
9304;SDS011;4690;52.422;13.486;2023-07-30T09:23:08;3.17;;;2.83;;
9304;SDS011;4690;52.422;13.486;2023-07-30T09:25:35;3.45;;;2.70;;
9304;SDS011;4690;52.422;13.486;2023-07-30T09:28:02;3.90;;;3.00;;
9304;SDS011;4690;52.422;13.486;2023-07-30T09:30:28;3.20;;;2.90;;
9304;SDS011;4690;52.422;13.486;2023-07-30T09:32:55;3.10;;;2.80;;
9304;SDS011;4690;52.422;13.486;2023-07-30T09:35:23;5.95;;;2.78;;
9304;SDS011;4690;52.422;13.486;2023-07-30T09:37:52;4.40;;;2.78;;
9304;SDS011;4690;52.422;13.486;2023-07-30T09:40:46;3.65;;;2.55;;
9304;SDS011;4690;52.422;13.486;2023-07-30T09:43:14;2.83;;;2.33;;
9304;SDS011;4690;52.422;13.486;2023-07-30T09:45:43;3.20;;;2.72;;
9304;SDS011;4690;52.422;13.486;2023-07-30T09:48:12;6.55;;;3.00;;
9304;SDS011;4690;52.422;13.486;2023-07-30T09:50:40;2.78;;;2.50;;
9304;SDS011;4690;52.422;13.486;2023-07-30T09:53:08;3.15;;;2.85;;
9304;SDS011;4690;52.422;13.486;2023-07-30T09:55:35;2.88;;;2.47;;
9304;SDS011;4690;52.422;13.486;2023-07-30T09:58:01;3.17;;;2.88;;
9304;SDS011;4690;52.422;13.486;2023-07-30T10:00:27;4.35;;;3.13;;
9304;SDS011;4690;52.422;13.486;2023-07-30T10:02:55;2.58;;;2.38;;
9304;SDS011;4690;52.422;13.486;2023-07-30T10:05:24;3.40;;;2.78;;
9304;SDS011;4690;52.422;13.486;2023-07-30T10:07:59;3.95;;;2.50;;
9304;SDS011;4690;52.422;13.486;2023-07-30T10:10:30;3.33;;;2.83;;
9304;SDS011;4690;52.422;13.486;2023-07-30T10:12:58;3.15;;;2.53;;
9304;SDS011;4690;52.422;13.486;2023-07-30T10:15:30;3.17;;;2.72;;
9304;SDS011;4690;52.422;13.486;2023-07-30T10:18:08;3.30;;;2.78;;
9304;SDS011;4690;52.422;13.486;2023-07-30T10:20:34;3.58;;;2.60;;
9304;SDS011;4690;52.422;13.486;2023-07-30T10:23:01;4.03;;;2.78;;
9304;SDS011;4690;52.422;13.486;2023-07-30T10:28:27;2.90;;;2.40;;
9304;SDS011;4690;52.422;13.486;2023-07-30T10:31:01;4.15;;;2.70;;
9304;SDS011;4690;52.422;13.486;2023-07-30T10:33:56;3.08;;;2.50;;
9304;SDS011;4690;52.422;13.486;2023-07-30T10:36:32;3.92;;;2.63;;
9304;SDS011;4690;52.422;13.486;2023-07-30T10:41:57;2.80;;;2.60;;
9304;SDS011;4690;52.422;13.486;2023-07-30T10:44:31;4.95;;;2.70;;
9304;SDS011;4690;52.422;13.486;2023-07-30T10:46:59;3.30;;;2.65;;
9304;SDS011;4690;52.422;13.486;2023-07-30T10:49:28;2.50;;;2.30;;
9304;SDS011;4690;52.422;13.486;2023-07-30T10:51:55;3.70;;;2.65;;
9304;SDS011;4690;52.422;13.486;2023-07-30T10:54:22;4.28;;;3.13;;
9304;SDS011;4690;52.422;13.486;2023-07-30T10:56:49;2.92;;;2.60;;
9304;SDS011;4690;52.422;13.486;2023-07-30T10:59:16;3.72;;;2.63;;
9304;SDS011;4690;52.422;13.486;2023-07-30T11:01:44;4.07;;;2.55;;
9304;SDS011;4690;52.422;13.486;2023-07-30T11:04:17;3.55;;;2.70;;
9304;SDS011;4690;52.422;13.486;2023-07-30T11:06:49;5.85;;;2.75;;
9304;SDS011;4690;52.422;13.486;2023-07-30T11:09:26;3.60;;;2.65;;
9304;SDS011;4690;52.422;13.486;2023-07-30T11:11:53;4.15;;;2.67;;
9304;SDS011;4690;52.422;13.486;2023-07-30T11:14:24;4.72;;;3.00;;
9304;SDS011;4690;52.422;13.486;2023-07-30T11:16:52;3.13;;;2.80;;
9304;SDS011;4690;52.422;13.486;2023-07-30T11:19:26;3.05;;;2.45;;
9304;SDS011;4690;52.422;13.486;2023-07-30T11:21:53;3.55;;;2.65;;
9304;SDS011;4690;52.422;13.486;2023-07-30T11:24:22;3.25;;;2.65;;
9304;SDS011;4690;52.422;13.486;2023-07-30T11:27:01;2.50;;;2.30;;
9304;SDS011;4690;52.422;13.486;2023-07-30T11:29:28;4.55;;;2.65;;
9304;SDS011;4690;52.422;13.486;2023-07-30T11:31:57;3.05;;;2.50;;
9304;SDS011;4690;52.422;13.486;2023-07-30T11:34:24;3.10;;;2.55;;
9304;SDS011;4690;52.422;13.486;2023-07-30T11:36:52;3.38;;;2.60;;
9304;SDS011;4690;52.422;13.486;2023-07-30T11:39:20;3.55;;;2.60;;
9304;SDS011;4690;52.422;13.486;2023-07-30T11:41:48;4.70;;;2.83;;
9304;SDS011;4690;52.422;13.486;2023-07-30T11:44:34;3.60;;;2.63;;
9304;SDS011;4690;52.422;13.486;2023-07-30T11:47:05;4.07;;;2.47;;
9304;SDS011;4690;52.422;13.486;2023-07-30T11:49:34;5.53;;;3.10;;
9304;SDS011;4690;52.422;13.486;2023-07-30T11:54:33;4.45;;;2.95;;
9304;SDS011;4690;52.422;13.486;2023-07-30T11:56:59;3.08;;;2.47;;
9304;SDS011;4690;52.422;13.486;2023-07-30T11:59:25;3.58;;;2.75;;
9304;SDS011;4690;52.422;13.486;2023-07-30T12:01:51;2.67;;;2.30;;
9304;SDS011;4690;52.422;13.486;2023-07-30T12:04:17;5.35;;;2.78;;
9304;SDS011;4690;52.422;13.486;2023-07-30T12:06:47;3.92;;;2.72;;
9304;SDS011;4690;52.422;13.486;2023-07-30T12:09:19;3.90;;;2.70;;
9304;SDS011;4690;52.422;13.486;2023-07-30T12:11:48;4.18;;;2.80;;
9304;SDS011;4690;52.422;13.486;2023-07-30T12:14:19;3.90;;;2.65;;
9304;SDS011;4690;52.422;13.486;2023-07-30T12:16:55;3.42;;;2.80;;
9304;SDS011;4690;52.422;13.486;2023-07-30T12:19:22;3.30;;;2.47;;
9304;SDS011;4690;52.422;13.486;2023-07-30T12:21:48;4.63;;;2.70;;
9304;SDS011;4690;52.422;13.486;2023-07-30T12:24:13;3.50;;;2.60;;
9304;SDS011;4690;52.422;13.486;2023-07-30T12:26:39;4.30;;;2.50;;
9304;SDS011;4690;52.422;13.486;2023-07-30T12:29:05;5.07;;;2.75;;
9304;SDS011;4690;52.422;13.486;2023-07-30T12:31:31;3.58;;;2.83;;
9304;SDS011;4690;52.422;13.486;2023-07-30T12:33:57;3.33;;;2.63;;
9304;SDS011;4690;52.422;13.486;2023-07-30T12:36:23;4.47;;;2.75;;
9304;SDS011;4690;52.422;13.486;2023-07-30T12:38:49;3.67;;;2.70;;
9304;SDS011;4690;52.422;13.486;2023-07-30T12:41:17;3.35;;;2.53;;
9304;SDS011;4690;52.422;13.486;2023-07-30T12:43:43;3.08;;;2.50;;
9304;SDS011;4690;52.422;13.486;2023-07-30T12:46:09;4.43;;;2.60;;
9304;SDS011;4690;52.422;13.486;2023-07-30T12:48:35;4.45;;;2.83;;
9304;SDS011;4690;52.422;13.486;2023-07-30T12:51:01;3.08;;;2.60;;
9304;SDS011;4690;52.422;13.486;2023-07-30T12:53:27;3.75;;;2.90;;
9304;SDS011;4690;52.422;13.486;2023-07-30T12:55:53;3.35;;;2.42;;
9304;SDS011;4690;52.422;13.486;2023-07-30T12:58:18;6.13;;;2.88;;
9304;SDS011;4690;52.422;13.486;2023-07-30T13:00:44;4.22;;;2.55;;
9304;SDS011;4690;52.422;13.486;2023-07-30T13:03:10;3.83;;;2.75;;
9304;SDS011;4690;52.422;13.486;2023-07-30T13:05:36;6.15;;;2.92;;
9304;SDS011;4690;52.422;13.486;2023-07-30T13:08:01;3.55;;;2.63;;
9304;SDS011;4690;52.422;13.486;2023-07-30T13:10:27;2.92;;;2.67;;
9304;SDS011;4690;52.422;13.486;2023-07-30T13:12:53;4.97;;;2.95;;
9304;SDS011;4690;52.422;13.486;2023-07-30T13:15:19;3.58;;;2.70;;
9304;SDS011;4690;52.422;13.486;2023-07-30T13:17:45;3.05;;;2.60;;
9304;SDS011;4690;52.422;13.486;2023-07-30T13:20:11;3.20;;;2.90;;
9304;SDS011;4690;52.422;13.486;2023-07-30T13:22:36;5.40;;;2.85;;
9304;SDS011;4690;52.422;13.486;2023-07-30T13:25:02;3.22;;;2.88;;
9304;SDS011;4690;52.422;13.486;2023-07-30T13:27:28;6.40;;;3.25;;
9304;SDS011;4690;52.422;13.486;2023-07-30T13:29:54;3.35;;;2.90;;
9304;SDS011;4690;52.422;13.486;2023-07-30T13:32:20;3.70;;;2.90;;
9304;SDS011;4690;52.422;13.486;2023-07-30T13:34:46;3.33;;;2.70;;
9304;SDS011;4690;52.422;13.486;2023-07-30T13:37:12;4.38;;;2.90;;
9304;SDS011;4690;52.422;13.486;2023-07-30T13:39:38;2.92;;;2.67;;
9304;SDS011;4690;52.422;13.486;2023-07-30T13:42:04;4.10;;;2.80;;
9304;SDS011;4690;52.422;13.486;2023-07-30T13:44:30;3.10;;;2.80;;
9304;SDS011;4690;52.422;13.486;2023-07-30T13:46:56;2.80;;;2.60;;
9304;SDS011;4690;52.422;13.486;2023-07-30T13:49:22;3.30;;;3.00;;
9304;SDS011;4690;52.422;13.486;2023-07-30T13:51:47;4.72;;;3.05;;
9304;SDS011;4690;52.422;13.486;2023-07-30T13:54:13;3.42;;;3.13;;
9304;SDS011;4690;52.422;13.486;2023-07-30T13:56:39;3.47;;;2.90;;
9304;SDS011;4690;52.422;13.486;2023-07-30T13:59:05;4.55;;;2.80;;
9304;SDS011;4690;52.422;13.486;2023-07-30T14:01:31;3.53;;;2.72;;
9304;SDS011;4690;52.422;13.486;2023-07-30T14:03:56;5.10;;;3.13;;
9304;SDS011;4690;52.422;13.486;2023-07-30T14:06:23;3.83;;;2.55;;
9304;SDS011;4690;52.422;13.486;2023-07-30T14:08:48;3.70;;;2.60;;
9304;SDS011;4690;52.422;13.486;2023-07-30T14:11:14;3.58;;;2.50;;
9304;SDS011;4690;52.422;13.486;2023-07-30T14:13:40;4.05;;;2.40;;
9304;SDS011;4690;52.422;13.486;2023-07-30T14:16:06;2.60;;;2.40;;
9304;SDS011;4690;52.422;13.486;2023-07-30T14:18:32;3.00;;;2.70;;
9304;SDS011;4690;52.422;13.486;2023-07-30T14:20:58;2.97;;;2.53;;
9304;SDS011;4690;52.422;13.486;2023-07-30T14:23:24;7.25;;;2.65;;
9304;SDS011;4690;52.422;13.486;2023-07-30T14:25:50;3.38;;;2.33;;
9304;SDS011;4690;52.422;13.486;2023-07-30T14:28:15;2.70;;;1.92;;
9304;SDS011;4690;52.422;13.486;2023-07-30T14:30:41;3.47;;;1.90;;
9304;SDS011;4690;52.422;13.486;2023-07-30T14:33:09;2.47;;;2.15;;
9304;SDS011;4690;52.422;13.486;2023-07-30T14:35:36;3.58;;;1.90;;
9304;SDS011;4690;52.422;13.486;2023-07-30T14:38:03;2.35;;;2.00;;
9304;SDS011;4690;52.422;13.486;2023-07-30T14:40:30;2.92;;;2.17;;
9304;SDS011;4690;52.422;13.486;2023-07-30T14:42:56;2.30;;;2.10;;
9304;SDS011;4690;52.422;13.486;2023-07-30T14:45:22;2.17;;;1.95;;
9304;SDS011;4690;52.422;13.486;2023-07-30T14:47:47;2.22;;;2.03;;
9304;SDS011;4690;52.422;13.486;2023-07-30T14:50:13;4.28;;;2.20;;
9304;SDS011;4690;52.422;13.486;2023-07-30T14:52:39;3.50;;;2.33;;
9304;SDS011;4690;52.422;13.486;2023-07-30T14:55:05;5.18;;;2.58;;
9304;SDS011;4690;52.422;13.486;2023-07-30T14:57:31;5.50;;;2.42;;
9304;SDS011;4690;52.422;13.486;2023-07-30T14:59:58;3.40;;;2.78;;
9304;SDS011;4690;52.422;13.486;2023-07-30T15:02:25;5.93;;;2.45;;
9304;SDS011;4690;52.422;13.486;2023-07-30T15:04:53;5.20;;;3.10;;
9304;SDS011;4690;52.422;13.486;2023-07-30T15:07:19;2.88;;;2.38;;
9304;SDS011;4690;52.422;13.486;2023-07-30T15:09:45;4.10;;;2.67;;